createdAt,value
2023-04-28T00:00:48.739Z,8.90
2023-04-28T00:04:50.508Z,8.80
2023-04-28T00:08:52.241Z,8.80
2023-04-28T00:12:53.916Z,8.80
2023-04-28T00:16:57.673Z,8.70
2023-04-28T00:20:59.889Z,8.80
2023-04-28T00:25:01.695Z,8.80
2023-04-28T00:29:03.376Z,8.70
2023-04-28T00:33:05.976Z,8.70
2023-04-28T00:37:07.704Z,8.70
2023-04-28T00:41:12.383Z,8.70
2023-04-28T00:45:14.038Z,8.60
2023-04-28T00:49:16.334Z,8.60
2023-04-28T00:53:18.023Z,8.60
2023-04-28T00:57:19.880Z,8.60
2023-04-28T01:01:21.624Z,8.60
2023-04-28T01:05:26.026Z,8.60
2023-04-28T01:09:27.677Z,8.60
2023-04-28T01:13:29.702Z,8.70
2023-04-28T01:17:31.486Z,8.60
2023-04-28T01:21:33.963Z,8.60
2023-04-28T01:25:35.790Z,8.60
2023-04-28T01:29:37.497Z,8.60
2023-04-28T01:33:39.133Z,8.70
2023-04-28T01:37:41.454Z,8.70
2023-04-28T01:41:43.206Z,8.70
2023-04-28T01:45:44.822Z,8.70
2023-04-28T01:49:48.157Z,8.70
2023-04-28T01:53:49.918Z,8.70
2023-04-28T01:57:51.585Z,8.70
2023-04-28T02:01:53.299Z,8.70
2023-04-28T02:05:55.274Z,8.70
2023-04-28T02:09:56.944Z,8.80
2023-04-28T02:13:58.805Z,8.80
2023-04-28T02:18:00.535Z,8.90
2023-04-28T02:22:02.181Z,8.90
2023-04-28T02:26:04.061Z,9.00
2023-04-28T02:30:06.648Z,9.00
2023-04-28T02:34:08.357Z,9.10
2023-04-28T02:38:10.091Z,9.10
2023-04-28T02:42:11.724Z,9.20
2023-04-28T02:46:13.411Z,9.30
2023-04-28T02:50:15.054Z,9.30
2023-04-28T02:54:16.791Z,9.30
2023-04-28T02:58:18.746Z,9.30
2023-04-28T03:02:22.930Z,9.30
2023-04-28T03:06:24.751Z,9.40
2023-04-28T03:10:26.595Z,9.30
2023-04-28T03:14:28.219Z,9.30
2023-04-28T03:18:29.872Z,9.30
2023-04-28T03:22:31.821Z,9.40
2023-04-28T03:26:33.768Z,9.30
2023-04-28T03:30:35.391Z,9.40
2023-04-28T03:34:37.100Z,9.30
2023-04-28T03:38:38.894Z,9.40
2023-04-28T03:42:40.673Z,9.40
2023-04-28T03:46:42.436Z,9.40
2023-04-28T03:50:45.427Z,9.30
2023-04-28T03:54:47.107Z,9.40
2023-04-28T03:58:48.882Z,9.50
2023-04-28T04:02:50.769Z,9.50
2023-04-28T04:06:53.544Z,9.50
2023-04-28T04:10:55.822Z,9.50
2023-04-28T04:14:57.574Z,9.50
2023-04-28T04:18:59.350Z,9.60
2023-04-28T04:23:01.904Z,9.60
2023-04-28T04:27:03.639Z,9.50
2023-04-28T04:31:05.620Z,9.50
2023-04-28T04:35:07.705Z,9.60
2023-04-28T04:39:09.602Z,9.60
2023-04-28T04:43:11.400Z,9.60
2023-04-28T04:47:13.052Z,9.60
2023-04-28T04:51:14.699Z,9.70
2023-04-28T04:55:16.341Z,9.70
2023-04-28T04:59:18.252Z,9.60
2023-04-28T05:03:20.833Z,9.70
2023-04-28T05:07:22.654Z,9.60
2023-04-28T05:11:24.275Z,9.60
2023-04-28T05:15:26.134Z,9.70
2023-04-28T05:19:27.883Z,9.80
2023-04-28T05:23:29.557Z,9.80
2023-04-28T05:27:31.859Z,9.80
2023-04-28T05:31:33.578Z,9.90
2023-04-28T05:35:35.837Z,10.00
2023-04-28T05:39:37.534Z,10.00
2023-04-28T05:43:39.196Z,10.00
2023-04-28T05:47:41.161Z,10.10
2023-04-28T05:51:42.810Z,10.20
2023-04-28T05:55:44.588Z,10.20
2023-04-28T05:59:46.340Z,10.30
2023-04-28T06:03:48.132Z,10.50
2023-04-28T06:07:50.286Z,10.60
2023-04-28T06:11:52.037Z,10.60
2023-04-28T06:15:53.795Z,10.80
2023-04-28T06:19:55.704Z,11.00
2023-04-28T06:23:57.371Z,11.20
2023-04-28T06:27:59.043Z,11.30
2023-04-28T06:32:00.747Z,11.50
2023-04-28T06:36:02.477Z,11.70
2023-04-28T06:40:04.537Z,11.90
2023-04-28T06:44:06.225Z,12.20
2023-04-28T06:48:08.210Z,12.40
2023-04-28T06:52:10.179Z,12.50
2023-04-28T06:56:11.942Z,12.60
2023-04-28T07:00:14.284Z,12.50
2023-04-28T07:04:16.457Z,12.60
2023-04-28T07:08:18.573Z,12.80
2023-04-28T07:12:21.785Z,13.00
2023-04-28T07:16:23.472Z,13.20
2023-04-28T07:20:25.397Z,13.20
2023-04-28T07:24:27.426Z,13.10
2023-04-28T07:28:29.162Z,13.10
2023-04-28T07:32:30.860Z,13.00
2023-04-28T07:36:32.712Z,13.10
2023-04-28T07:40:34.369Z,13.10
2023-04-28T07:44:36.192Z,13.00
2023-04-28T07:48:37.833Z,13.00
2023-04-28T07:52:39.679Z,12.70
2023-04-28T07:56:41.474Z,12.80
2023-04-28T08:00:43.144Z,12.80
2023-04-28T08:04:44.909Z,12.90
2023-04-28T08:08:47.082Z,12.70
2023-04-28T08:12:48.728Z,12.70
2023-04-28T08:16:50.526Z,12.70
2023-04-28T08:20:52.257Z,12.80
2023-04-28T08:24:53.885Z,12.90
2023-04-28T08:28:55.568Z,12.90
2023-04-28T08:32:57.277Z,12.80
2023-04-28T08:36:59.013Z,12.90
2023-04-28T08:41:03.417Z,13.20
2023-04-28T08:45:05.673Z,13.40
2023-04-28T08:49:12.560Z,13.70
2023-04-28T08:53:16.026Z,13.80
2023-04-28T08:57:20.495Z,14.10
2023-04-28T09:01:23.750Z,14.30
2023-04-28T09:05:25.824Z,14.20
2023-04-28T09:09:34.998Z,14.10
2023-04-28T09:13:37.351Z,14.00
2023-04-28T09:17:52.850Z,13.60
2023-04-28T09:21:57.929Z,13.60
2023-04-28T09:26:05.162Z,13.50
2023-04-28T09:30:07.674Z,13.50
2023-04-28T09:34:09.814Z,13.60
2023-04-28T09:38:11.913Z,13.70
2023-04-28T09:42:41.543Z,13.80
2023-04-28T09:46:44.749Z,13.60
2023-04-28T09:50:46.396Z,13.50
2023-04-28T09:54:50.766Z,13.60
2023-04-28T09:58:53.778Z,13.60
2023-04-28T10:02:55.983Z,13.70
2023-04-28T10:06:57.805Z,13.60
2023-04-28T10:11:00.220Z,13.70
2023-04-28T10:15:02.610Z,13.70
2023-04-28T10:19:05.154Z,13.70
2023-04-28T10:23:49.147Z,13.60
2023-04-28T10:27:51.085Z,13.60
2023-04-28T10:32:19.413Z,13.70
2023-04-28T10:36:47.287Z,13.60
2023-04-28T10:40:50.664Z,13.60
2023-04-28T10:44:52.369Z,13.60
2023-04-28T10:48:55.181Z,13.70
2023-04-28T10:52:57.445Z,13.80
2023-04-28T10:57:18.890Z,13.90
2023-04-28T11:01:26.959Z,14.00
2023-04-28T11:05:30.494Z,13.90
2023-04-28T11:09:32.188Z,13.90
2023-04-28T11:13:34.372Z,14.10
2023-04-28T11:17:42.427Z,14.10
2023-04-28T11:21:44.792Z,14.20
2023-04-28T11:25:59.010Z,14.30
2023-04-28T11:30:01.759Z,14.30
2023-04-28T11:34:05.166Z,14.20
2023-04-28T11:38:06.850Z,14.20
2023-04-28T11:42:11.378Z,14.10
2023-04-28T11:46:21.581Z,14.20
2023-04-28T11:50:36.837Z,14.30
2023-04-28T11:54:39.008Z,14.40
2023-04-28T11:58:40.673Z,14.30
2023-04-28T12:02:42.669Z,14.40
2023-04-28T12:06:44.436Z,14.70
2023-04-28T12:11:19.614Z,15.10
2023-04-28T12:15:23.349Z,15.40
2023-04-28T12:19:25.019Z,15.50
2023-04-28T12:23:35.070Z,15.70
2023-04-28T12:27:39.400Z,15.80
2023-04-28T12:31:52.767Z,16.10
2023-04-28T12:35:56.921Z,16.60
2023-04-28T12:39:58.680Z,16.90
2023-04-28T12:44:00.391Z,17.70
2023-04-28T12:48:02.134Z,18.20
2023-04-28T12:52:06.839Z,18.00
2023-04-28T12:56:08.919Z,17.50
2023-04-28T13:00:11.184Z,17.50
2023-04-28T13:04:13.123Z,17.50
2023-04-28T13:08:14.905Z,17.70
2023-04-28T13:12:16.741Z,18.10
2023-04-28T13:16:18.649Z,18.40
2023-04-28T13:20:20.366Z,18.50
2023-04-28T13:24:22.072Z,18.90
2023-04-28T13:28:24.089Z,19.60
2023-04-28T13:32:25.919Z,20.10
2023-04-28T13:36:29.715Z,20.50
2023-04-28T13:40:33.585Z,21.30
2023-04-28T13:44:35.274Z,21.80
2023-04-28T13:48:37.676Z,21.70
2023-04-28T13:52:39.460Z,21.50
2023-04-28T13:56:41.439Z,21.00
2023-04-28T14:00:43.419Z,20.50
2023-04-28T14:04:49.010Z,20.00
2023-04-28T14:08:51.041Z,20.70
2023-04-28T14:12:52.688Z,20.90
2023-04-28T14:16:54.389Z,21.50
2023-04-28T14:20:56.490Z,21.50
2023-04-28T14:24:58.178Z,20.50
2023-04-28T14:29:00.499Z,20.30
2023-04-28T14:33:02.340Z,20.40
2023-04-28T14:37:04.064Z,20.60
2023-04-28T14:41:05.738Z,20.20
2023-04-28T14:45:09.984Z,20.20
2023-04-28T14:49:11.798Z,20.10
2023-04-28T14:53:13.436Z,19.40
2023-04-28T14:57:15.386Z,19.10
2023-04-28T15:01:18.222Z,18.70
2023-04-28T15:05:20.012Z,18.50
2023-04-28T15:09:22.224Z,18.10
2023-04-28T15:13:25.294Z,17.80
2023-04-28T15:17:27.783Z,17.50
2023-04-28T15:21:30.974Z,17.30
2023-04-28T15:25:32.649Z,17.20
2023-04-28T15:29:34.460Z,17.00
2023-04-28T15:33:36.098Z,16.80
2023-04-28T15:37:37.710Z,16.40
2023-04-28T15:41:39.401Z,16.20
2023-04-28T15:45:41.253Z,16.00
2023-04-28T15:49:43.213Z,15.80
2023-04-28T15:53:44.800Z,15.70
2023-04-28T15:57:47.518Z,15.40
2023-04-28T16:01:49.231Z,15.40
2023-04-28T16:05:54.088Z,15.40
2023-04-28T16:09:56.310Z,15.60
2023-04-28T16:13:57.981Z,15.60
2023-04-28T16:17:59.838Z,15.60
2023-04-28T16:22:01.529Z,15.70
2023-04-28T16:26:03.146Z,15.80
2023-04-28T16:30:08.445Z,15.70
2023-04-28T16:34:10.162Z,15.70
2023-04-28T16:38:12.195Z,15.60
2023-04-28T16:42:14.310Z,15.40
2023-04-28T16:46:16.333Z,15.60
2023-04-28T16:50:18.058Z,15.60
2023-04-28T16:54:19.697Z,15.70
2023-04-28T16:58:21.420Z,15.60
2023-04-28T17:02:24.105Z,15.40
2023-04-28T17:06:25.982Z,15.30
2023-04-28T17:10:27.623Z,15.30
2023-04-28T17:14:29.274Z,15.30
2023-04-28T17:18:31.176Z,15.10
2023-04-28T17:22:33.024Z,15.10
2023-04-28T17:26:34.703Z,15.00
2023-04-28T17:30:36.735Z,14.90
2023-04-28T17:34:38.415Z,14.80
2023-04-28T17:38:40.125Z,14.90
2023-04-28T17:42:42.901Z,14.90
2023-04-28T17:46:44.564Z,14.70
2023-04-28T17:50:46.482Z,14.70
2023-04-28T17:54:48.452Z,14.60
2023-04-28T17:58:50.748Z,14.60
2023-04-28T18:02:52.653Z,14.50
2023-04-28T18:06:54.430Z,14.50
2023-04-28T18:10:58.057Z,14.40
2023-04-28T18:15:00.728Z,14.30
2023-04-28T18:19:02.386Z,14.30
2023-04-28T18:23:04.002Z,14.20
2023-04-28T18:27:05.649Z,14.20
2023-04-28T18:31:07.355Z,14.10
2023-04-28T18:35:09.056Z,14.10
2023-04-28T18:39:11.133Z,14.00
2023-04-28T18:43:13.152Z,14.00
2023-04-28T18:47:15.565Z,14.00
2023-04-28T18:51:17.473Z,14.00
2023-04-28T18:55:19.289Z,13.90
2023-04-28T18:59:21.011Z,13.80
2023-04-28T19:03:23.265Z,13.90
2023-04-28T19:07:25.068Z,13.90
2023-04-28T19:11:26.812Z,13.80
2023-04-28T19:15:28.472Z,13.80
2023-04-28T19:19:30.359Z,13.80
2023-04-28T19:23:32.601Z,13.70
2023-04-28T19:27:40.666Z,13.70
2023-04-28T19:31:42.478Z,13.70
2023-04-28T19:35:44.210Z,13.80
2023-04-28T19:39:47.402Z,13.70
2023-04-28T19:43:49.165Z,13.70
2023-04-28T19:47:52.744Z,13.80
2023-04-28T19:51:54.488Z,13.70
2023-04-28T19:56:00.585Z,13.70
2023-04-28T20:00:02.275Z,13.70
2023-04-28T20:04:04.406Z,13.80
2023-04-28T20:08:06.443Z,13.80
2023-04-28T20:12:09.360Z,13.80
2023-04-28T20:16:11.465Z,13.90
2023-04-28T20:20:13.255Z,13.90
2023-04-28T20:24:14.868Z,13.90
2023-04-28T20:28:16.451Z,13.80
2023-04-28T20:32:18.074Z,13.70
2023-04-28T20:36:19.730Z,13.60
2023-04-28T20:40:21.362Z,13.60
2023-04-28T20:44:22.942Z,13.70
2023-04-28T20:48:24.674Z,13.70
2023-04-28T20:52:27.086Z,13.60
2023-04-28T20:56:28.724Z,13.50
2023-04-28T21:00:30.502Z,13.50
2023-04-28T21:04:32.668Z,13.50
2023-04-28T21:08:34.381Z,13.50
2023-04-28T21:12:36.261Z,13.40
2023-04-28T21:16:37.983Z,13.30
2023-04-28T21:20:39.661Z,13.10
2023-04-28T21:24:41.446Z,13.00
2023-04-28T21:28:43.645Z,12.90
2023-04-28T21:32:45.354Z,12.80
2023-04-28T21:36:47.082Z,12.80
2023-04-28T21:40:49.023Z,12.80
2023-04-28T21:44:51.106Z,12.70
2023-04-28T21:48:52.691Z,12.70
2023-04-28T21:52:54.838Z,12.70
2023-04-28T21:56:56.486Z,12.60
2023-04-28T22:00:59.129Z,12.60
2023-04-28T22:05:00.943Z,12.60
2023-04-28T22:09:02.928Z,12.60
2023-04-28T22:13:18.993Z,12.60
2023-04-28T22:17:20.858Z,12.60
2023-04-28T22:21:22.577Z,12.50
2023-04-28T22:25:24.278Z,12.50
2023-04-28T22:29:26.055Z,12.50
2023-04-28T22:33:27.806Z,12.50
2023-04-28T22:37:29.477Z,12.50
2023-04-28T22:41:31.297Z,12.50
2023-04-28T22:45:32.953Z,12.40
2023-04-28T22:49:34.642Z,12.30
2023-04-28T22:53:36.336Z,12.30
2023-04-28T22:57:38.051Z,12.30
2023-04-28T23:01:40.060Z,12.20
2023-04-28T23:05:41.836Z,12.20
2023-04-28T23:09:43.607Z,12.20
2023-04-28T23:13:45.624Z,12.10
2023-04-28T23:17:47.380Z,12.00
2023-04-28T23:21:49.144Z,12.00
2023-04-28T23:25:51.850Z,11.80
2023-04-28T23:29:53.505Z,11.70
2023-04-28T23:33:55.141Z,11.60
2023-04-28T23:37:56.921Z,11.60
2023-04-28T23:41:58.566Z,11.60
2023-04-28T23:46:00.347Z,11.60
2023-04-28T23:50:02.080Z,11.50
2023-04-28T23:54:03.774Z,11.50
2023-04-28T23:58:05.411Z,11.50
